sensor_id;sensor_type;location;lat;lon;timestamp;P1;durP1;ratioP1;P2;durP2;ratioP2
71965;SDS011;59836;52.132;5.442;2023-07-20T00:00:17;4.13;;;2.45;;
71965;SDS011;59836;52.132;5.442;2023-07-20T00:02:44;3.47;;;1.90;;
71965;SDS011;59836;52.132;5.442;2023-07-20T00:05:10;2.80;;;2.30;;
71965;SDS011;59836;52.132;5.442;2023-07-20T00:10:23;3.15;;;1.65;;
71965;SDS011;59836;52.132;5.442;2023-07-20T00:12:50;2.92;;;1.70;;
71965;SDS011;59836;52.132;5.442;2023-07-20T00:15:17;2.72;;;2.00;;
71965;SDS011;59836;52.132;5.442;2023-07-20T00:17:47;2.57;;;1.43;;
71965;SDS011;59836;52.132;5.442;2023-07-20T00:20:16;2.00;;;1.50;;
71965;SDS011;59836;52.132;5.442;2023-07-20T00:22:43;2.30;;;1.60;;
71965;SDS011;59836;52.132;5.442;2023-07-20T00:25:17;3.05;;;1.83;;
71965;SDS011;59836;52.132;5.442;2023-07-20T00:30:14;2.40;;;1.50;;
71965;SDS011;59836;52.132;5.442;2023-07-20T00:35:41;3.17;;;1.60;;
71965;SDS011;59836;52.132;5.442;2023-07-20T00:41:11;2.25;;;1.30;;
71965;SDS011;59836;52.132;5.442;2023-07-20T00:43:39;2.57;;;1.30;;
71965;SDS011;59836;52.132;5.442;2023-07-20T00:46:05;1.50;;;1.20;;
71965;SDS011;59836;52.132;5.442;2023-07-20T00:48:32;2.25;;;1.05;;
71965;SDS011;59836;52.132;5.442;2023-07-20T00:51:01;1.38;;;1.10;;
71965;SDS011;59836;52.132;5.442;2023-07-20T00:53:28;2.13;;;1.00;;
71965;SDS011;59836;52.132;5.442;2023-07-20T00:58:44;1.83;;;1.40;;
71965;SDS011;59836;52.132;5.442;2023-07-20T01:01:12;1.23;;;0.75;;
71965;SDS011;59836;52.132;5.442;2023-07-20T01:10:01;1.40;;;1.17;;
71965;SDS011;59836;52.132;5.442;2023-07-20T01:12:36;0.95;;;0.75;;
71965;SDS011;59836;52.132;5.442;2023-07-20T01:15:21;1.33;;;0.85;;
71965;SDS011;59836;52.132;5.442;2023-07-20T01:20:34;1.85;;;0.90;;
71965;SDS011;59836;52.132;5.442;2023-07-20T01:29:06;1.00;;;0.70;;
71965;SDS011;59836;52.132;5.442;2023-07-20T01:31:47;1.45;;;0.95;;
71965;SDS011;59836;52.132;5.442;2023-07-20T01:34:19;1.42;;;0.80;;
71965;SDS011;59836;52.132;5.442;2023-07-20T01:36:52;1.53;;;0.80;;
71965;SDS011;59836;52.132;5.442;2023-07-20T01:39:29;0.88;;;0.60;;
71965;SDS011;59836;52.132;5.442;2023-07-20T01:41:57;1.35;;;0.60;;
71965;SDS011;59836;52.132;5.442;2023-07-20T01:44:24;1.02;;;0.60;;
71965;SDS011;59836;52.132;5.442;2023-07-20T01:46:50;1.05;;;0.73;;
71965;SDS011;59836;52.132;5.442;2023-07-20T01:49:31;1.13;;;0.67;;
71965;SDS011;59836;52.132;5.442;2023-07-20T01:51:57;1.75;;;0.40;;
71965;SDS011;59836;52.132;5.442;2023-07-20T01:54:24;1.10;;;0.57;;
71965;SDS011;59836;52.132;5.442;2023-07-20T01:56:50;1.30;;;0.93;;
71965;SDS011;59836;52.132;5.442;2023-07-20T01:59:17;1.00;;;0.70;;
71965;SDS011;59836;52.132;5.442;2023-07-20T02:04:28;1.52;;;0.90;;
71965;SDS011;59836;52.132;5.442;2023-07-20T02:10:18;1.95;;;1.20;;
71965;SDS011;59836;52.132;5.442;2023-07-20T02:12:52;1.33;;;0.93;;
71965;SDS011;59836;52.132;5.442;2023-07-20T02:18:20;1.40;;;0.98;;
71965;SDS011;59836;52.132;5.442;2023-07-20T02:20:47;1.50;;;1.00;;
71965;SDS011;59836;52.132;5.442;2023-07-20T02:23:13;2.05;;;0.90;;
71965;SDS011;59836;52.132;5.442;2023-07-20T02:25:40;1.40;;;0.95;;
71965;SDS011;59836;52.132;5.442;2023-07-20T02:30:58;1.17;;;0.93;;
71965;SDS011;59836;52.132;5.442;2023-07-20T02:33:28;2.47;;;1.17;;
71965;SDS011;59836;52.132;5.442;2023-07-20T02:35:55;1.67;;;1.40;;
71965;SDS011;59836;52.132;5.442;2023-07-20T02:38:27;1.60;;;1.10;;
71965;SDS011;59836;52.132;5.442;2023-07-20T02:40:54;1.53;;;1.20;;
71965;SDS011;59836;52.132;5.442;2023-07-20T02:43:21;1.98;;;1.17;;
71965;SDS011;59836;52.132;5.442;2023-07-20T02:45:49;1.60;;;1.10;;
71965;SDS011;59836;52.132;5.442;2023-07-20T02:48:16;2.15;;;1.20;;
71965;SDS011;59836;52.132;5.442;2023-07-20T02:50:44;1.35;;;1.13;;
71965;SDS011;59836;52.132;5.442;2023-07-20T02:55:48;1.98;;;1.35;;
71965;SDS011;59836;52.132;5.442;2023-07-20T02:58:24;2.00;;;1.48;;
71965;SDS011;59836;52.132;5.442;2023-07-20T03:01:06;1.98;;;1.48;;
71965;SDS011;59836;52.132;5.442;2023-07-20T03:03:33;1.50;;;1.15;;
71965;SDS011;59836;52.132;5.442;2023-07-20T03:09:15;1.52;;;1.08;;
71965;SDS011;59836;52.132;5.442;2023-07-20T03:11:41;1.30;;;0.80;;
71965;SDS011;59836;52.132;5.442;2023-07-20T03:14:09;1.40;;;1.05;;
71965;SDS011;59836;52.132;5.442;2023-07-20T03:16:55;1.80;;;1.33;;
71965;SDS011;59836;52.132;5.442;2023-07-20T03:22:20;1.65;;;1.30;;
71965;SDS011;59836;52.132;5.442;2023-07-20T03:24:49;2.40;;;1.40;;
71965;SDS011;59836;52.132;5.442;2023-07-20T03:27:34;2.20;;;1.42;;
71965;SDS011;59836;52.132;5.442;2023-07-20T03:30:01;1.85;;;1.63;;
71965;SDS011;59836;52.132;5.442;2023-07-20T03:32:28;1.87;;;1.40;;
71965;SDS011;59836;52.132;5.442;2023-07-20T03:37:46;3.25;;;1.48;;
71965;SDS011;59836;52.132;5.442;2023-07-20T03:42:42;1.77;;;1.50;;
71965;SDS011;59836;52.132;5.442;2023-07-20T03:45:09;1.60;;;1.20;;
71965;SDS011;59836;52.132;5.442;2023-07-20T03:47:36;1.88;;;1.40;;
71965;SDS011;59836;52.132;5.442;2023-07-20T03:50:02;2.35;;;1.42;;
71965;SDS011;59836;52.132;5.442;2023-07-20T03:52:31;1.67;;;1.35;;
71965;SDS011;59836;52.132;5.442;2023-07-20T03:54:58;1.75;;;1.48;;
71965;SDS011;59836;52.132;5.442;2023-07-20T03:57:24;2.27;;;1.27;;
71965;SDS011;59836;52.132;5.442;2023-07-20T03:59:51;2.08;;;1.60;;
71965;SDS011;59836;52.132;5.442;2023-07-20T04:02:25;2.30;;;1.50;;
71965;SDS011;59836;52.132;5.442;2023-07-20T04:04:52;2.10;;;1.30;;
71965;SDS011;59836;52.132;5.442;2023-07-20T04:07:18;1.50;;;1.10;;
71965;SDS011;59836;52.132;5.442;2023-07-20T04:09:49;1.93;;;1.37;;
71965;SDS011;59836;52.132;5.442;2023-07-20T04:12:16;1.65;;;1.42;;
71965;SDS011;59836;52.132;5.442;2023-07-20T04:17:33;1.90;;;1.30;;
71965;SDS011;59836;52.132;5.442;2023-07-20T04:20:00;3.40;;;1.65;;
71965;SDS011;59836;52.132;5.442;2023-07-20T04:22:32;3.23;;;1.60;;
71965;SDS011;59836;52.132;5.442;2023-07-20T04:25:00;2.60;;;1.30;;
71965;SDS011;59836;52.132;5.442;2023-07-20T04:27:27;2.60;;;1.40;;
71965;SDS011;59836;52.132;5.442;2023-07-20T04:29:54;2.05;;;1.55;;
71965;SDS011;59836;52.132;5.442;2023-07-20T04:32:22;1.63;;;1.38;;
71965;SDS011;59836;52.132;5.442;2023-07-20T04:34:50;1.63;;;1.43;;
71965;SDS011;59836;52.132;5.442;2023-07-20T04:37:20;3.40;;;1.60;;
71965;SDS011;59836;52.132;5.442;2023-07-20T04:39:47;4.38;;;1.83;;
71965;SDS011;59836;52.132;5.442;2023-07-20T04:42:16;2.08;;;1.50;;
71965;SDS011;59836;52.132;5.442;2023-07-20T04:44:55;1.73;;;1.15;;
71965;SDS011;59836;52.132;5.442;2023-07-20T04:47:22;2.67;;;1.87;;
71965;SDS011;59836;52.132;5.442;2023-07-20T04:49:50;3.42;;;1.90;;
71965;SDS011;59836;52.132;5.442;2023-07-20T04:52:19;2.75;;;1.70;;
71965;SDS011;59836;52.132;5.442;2023-07-20T04:54:55;3.15;;;1.80;;
71965;SDS011;59836;52.132;5.442;2023-07-20T04:57:23;2.47;;;1.70;;
71965;SDS011;59836;52.132;5.442;2023-07-20T04:59:50;3.57;;;2.00;;
71965;SDS011;59836;52.132;5.442;2023-07-20T05:02:18;1.90;;;1.42;;
71965;SDS011;59836;52.132;5.442;2023-07-20T05:04:46;3.05;;;1.70;;
71965;SDS011;59836;52.132;5.442;2023-07-20T05:07:14;3.83;;;1.58;;
71965;SDS011;59836;52.132;5.442;2023-07-20T05:09:43;2.28;;;1.70;;
71965;SDS011;59836;52.132;5.442;2023-07-20T05:14:54;3.53;;;2.05;;
71965;SDS011;59836;52.132;5.442;2023-07-20T05:17:22;3.90;;;2.25;;
71965;SDS011;59836;52.132;5.442;2023-07-20T05:19:52;3.03;;;1.80;;
71965;SDS011;59836;52.132;5.442;2023-07-20T05:22:19;2.47;;;1.83;;
71965;SDS011;59836;52.132;5.442;2023-07-20T05:24:46;4.00;;;2.30;;
71965;SDS011;59836;52.132;5.442;2023-07-20T05:27:13;2.72;;;2.17;;
71965;SDS011;59836;52.132;5.442;2023-07-20T05:32:50;3.13;;;2.10;;
71965;SDS011;59836;52.132;5.442;2023-07-20T05:35:30;2.80;;;2.00;;
71965;SDS011;59836;52.132;5.442;2023-07-20T05:38:31;2.27;;;2.00;;
71965;SDS011;59836;52.132;5.442;2023-07-20T05:41:05;4.28;;;1.83;;
71965;SDS011;59836;52.132;5.442;2023-07-20T05:44:13;2.47;;;1.58;;
71965;SDS011;59836;52.132;5.442;2023-07-20T05:47:17;3.40;;;1.98;;
71965;SDS011;59836;52.132;5.442;2023-07-20T06:45:22;1.95;;;1.20;;
71965;SDS011;59836;52.132;5.442;2023-07-20T06:50:42;1.40;;;0.90;;
71965;SDS011;59836;52.132;5.442;2023-07-20T06:53:09;1.90;;;0.83;;
71965;SDS011;59836;52.132;5.442;2023-07-20T06:55:52;1.80;;;0.85;;
71965;SDS011;59836;52.132;5.442;2023-07-20T06:58:19;1.38;;;0.80;;
71965;SDS011;59836;52.132;5.442;2023-07-20T07:00:48;1.20;;;1.10;;
71965;SDS011;59836;52.132;5.442;2023-07-20T07:03:18;2.78;;;1.08;;
71965;SDS011;59836;52.132;5.442;2023-07-20T07:05:45;2.20;;;1.00;;
71965;SDS011;59836;52.132;5.442;2023-07-20T07:08:26;1.95;;;0.85;;
71965;SDS011;59836;52.132;5.442;2023-07-20T07:10:53;1.33;;;1.00;;
71965;SDS011;59836;52.132;5.442;2023-07-20T07:13:22;1.38;;;1.00;;
71965;SDS011;59836;52.132;5.442;2023-07-20T07:15:50;2.58;;;1.05;;
71965;SDS011;59836;52.132;5.442;2023-07-20T07:18:20;1.77;;;1.00;;
71965;SDS011;59836;52.132;5.442;2023-07-20T07:20:52;1.92;;;0.90;;
71965;SDS011;59836;52.132;5.442;2023-07-20T07:31:44;2.07;;;0.80;;
71965;SDS011;59836;52.132;5.442;2023-07-20T07:34:18;4.55;;;1.60;;
71965;SDS011;59836;52.132;5.442;2023-07-20T07:36:59;1.25;;;1.13;;
71965;SDS011;59836;52.132;5.442;2023-07-20T07:39:38;1.48;;;0.60;;
71965;SDS011;59836;52.132;5.442;2023-07-20T07:48:00;2.05;;;1.35;;
71965;SDS011;59836;52.132;5.442;2023-07-20T07:50:46;1.33;;;0.90;;
71965;SDS011;59836;52.132;5.442;2023-07-20T07:53:27;1.13;;;0.90;;
71965;SDS011;59836;52.132;5.442;2023-07-20T08:15:49;1.50;;;1.00;;
71965;SDS011;59836;52.132;5.442;2023-07-20T08:18:32;0.93;;;0.60;;
71965;SDS011;59836;52.132;5.442;2023-07-20T08:20:59;1.83;;;0.73;;
71965;SDS011;59836;52.132;5.442;2023-07-20T08:23:26;2.20;;;0.77;;
71965;SDS011;59836;52.132;5.442;2023-07-20T08:25:54;1.53;;;0.77;;
71965;SDS011;59836;52.132;5.442;2023-07-20T08:28:27;1.80;;;1.00;;
71965;SDS011;59836;52.132;5.442;2023-07-20T08:30:55;1.10;;;0.80;;
71965;SDS011;59836;52.132;5.442;2023-07-20T08:33:24;2.00;;;0.80;;
71965;SDS011;59836;52.132;5.442;2023-07-20T08:35:55;1.48;;;1.00;;
71965;SDS011;59836;52.132;5.442;2023-07-20T08:38:23;0.90;;;0.80;;
71965;SDS011;59836;52.132;5.442;2023-07-20T08:43:38;1.27;;;0.70;;
71965;SDS011;59836;52.132;5.442;2023-07-20T08:46:10;1.20;;;0.63;;
71965;SDS011;59836;52.132;5.442;2023-07-20T08:48:39;0.75;;;0.60;;
71965;SDS011;59836;52.132;5.442;2023-07-20T08:51:08;1.93;;;0.73;;
71965;SDS011;59836;52.132;5.442;2023-07-20T08:53:51;0.95;;;0.60;;
71965;SDS011;59836;52.132;5.442;2023-07-20T08:56:18;0.82;;;0.73;;
71965;SDS011;59836;52.132;5.442;2023-07-20T08:58:49;1.70;;;0.70;;
71965;SDS011;59836;52.132;5.442;2023-07-20T09:04:05;0.80;;;0.63;;
71965;SDS011;59836;52.132;5.442;2023-07-20T09:06:40;1.42;;;0.73;;
71965;SDS011;59836;52.132;5.442;2023-07-20T09:09:10;1.10;;;0.55;;
71965;SDS011;59836;52.132;5.442;2023-07-20T09:11:38;1.77;;;0.60;;
71965;SDS011;59836;52.132;5.442;2023-07-20T09:14:09;0.93;;;0.50;;
71965;SDS011;59836;52.132;5.442;2023-07-20T09:16:52;1.30;;;0.67;;
71965;SDS011;59836;52.132;5.442;2023-07-20T09:19:29;0.90;;;0.57;;
71965;SDS011;59836;52.132;5.442;2023-07-20T09:21:59;0.75;;;0.70;;
71965;SDS011;59836;52.132;5.442;2023-07-20T09:24:28;0.80;;;0.55;;
71965;SDS011;59836;52.132;5.442;2023-07-20T09:27:01;0.82;;;0.60;;
71965;SDS011;59836;52.132;5.442;2023-07-20T09:29:51;0.90;;;0.70;;
71965;SDS011;59836;52.132;5.442;2023-07-20T09:32:21;0.68;;;0.60;;
71965;SDS011;59836;52.132;5.442;2023-07-20T09:37:28;0.95;;;0.50;;
71965;SDS011;59836;52.132;5.442;2023-07-20T09:39:55;1.08;;;0.77;;
71965;SDS011;59836;52.132;5.442;2023-07-20T09:42:24;0.90;;;0.80;;
71965;SDS011;59836;52.132;5.442;2023-07-20T09:44:57;1.25;;;0.55;;
71965;SDS011;59836;52.132;5.442;2023-07-20T09:47:23;0.90;;;0.40;;
71965;SDS011;59836;52.132;5.442;2023-07-20T09:49:57;1.00;;;0.60;;
71965;SDS011;59836;52.132;5.442;2023-07-20T09:52:39;0.90;;;0.57;;
71965;SDS011;59836;52.132;5.442;2023-07-20T09:55:09;1.00;;;0.60;;
71965;SDS011;59836;52.132;5.442;2023-07-20T09:57:39;1.20;;;0.80;;
71965;SDS011;59836;52.132;5.442;2023-07-20T10:00:06;1.60;;;0.70;;
71965;SDS011;59836;52.132;5.442;2023-07-20T10:02:44;1.00;;;0.40;;
71965;SDS011;59836;52.132;5.442;2023-07-20T10:05:26;0.98;;;0.40;;
71965;SDS011;59836;52.132;5.442;2023-07-20T10:07:58;1.30;;;0.80;;
71965;SDS011;59836;52.132;5.442;2023-07-20T10:10:28;0.93;;;0.70;;
71965;SDS011;59836;52.132;5.442;2023-07-20T10:12:56;0.70;;;0.47;;
71965;SDS011;59836;52.132;5.442;2023-07-20T10:15:36;0.90;;;0.60;;
71965;SDS011;59836;52.132;5.442;2023-07-20T10:21:24;0.90;;;0.80;;
71965;SDS011;59836;52.132;5.442;2023-07-20T10:23:56;0.98;;;0.40;;
71965;SDS011;59836;52.132;5.442;2023-07-20T10:26:24;0.80;;;0.60;;
71965;SDS011;59836;52.132;5.442;2023-07-20T10:28:52;0.80;;;0.68;;
71965;SDS011;59836;52.132;5.442;2023-07-20T10:31:28;1.00;;;0.60;;
71965;SDS011;59836;52.132;5.442;2023-07-20T10:34:07;0.70;;;0.60;;
71965;SDS011;59836;52.132;5.442;2023-07-20T10:36:45;0.70;;;0.60;;
71965;SDS011;59836;52.132;5.442;2023-07-20T10:49:08;2.10;;;0.70;;
71965;SDS011;59836;52.132;5.442;2023-07-20T10:56:13;0.85;;;0.45;;
71965;SDS011;59836;52.132;5.442;2023-07-20T10:58:59;1.42;;;0.50;;
71965;SDS011;59836;52.132;5.442;2023-07-20T11:19:23;1.33;;;0.33;;
71965;SDS011;59836;52.132;5.442;2023-07-20T11:21:54;0.90;;;0.50;;
71965;SDS011;59836;52.132;5.442;2023-07-20T11:24:31;0.73;;;0.60;;
71965;SDS011;59836;52.132;5.442;2023-07-20T11:27:13;1.30;;;0.50;;
71965;SDS011;59836;52.132;5.442;2023-07-20T11:32:21;2.43;;;0.67;;
71965;SDS011;59836;52.132;5.442;2023-07-20T11:34:49;0.70;;;0.40;;
71965;SDS011;59836;52.132;5.442;2023-07-20T11:37:37;0.70;;;0.40;;
71965;SDS011;59836;52.132;5.442;2023-07-20T11:40:07;2.17;;;1.20;;
71965;SDS011;59836;52.132;5.442;2023-07-20T11:42:35;0.60;;;0.50;;
71965;SDS011;59836;52.132;5.442;2023-07-20T11:48:01;1.80;;;0.40;;
71965;SDS011;59836;52.132;5.442;2023-07-20T11:50:28;0.60;;;0.45;;
71965;SDS011;59836;52.132;5.442;2023-07-20T11:52:55;0.65;;;0.50;;
71965;SDS011;59836;52.132;5.442;2023-07-20T11:55:22;0.60;;;0.55;;
71965;SDS011;59836;52.132;5.442;2023-07-20T11:58:07;0.97;;;0.67;;
71965;SDS011;59836;52.132;5.442;2023-07-20T12:00:35;1.23;;;0.73;;
71965;SDS011;59836;52.132;5.442;2023-07-20T12:03:07;1.85;;;0.38;;
71965;SDS011;59836;52.132;5.442;2023-07-20T12:08:29;0.98;;;0.50;;
71965;SDS011;59836;52.132;5.442;2023-07-20T12:14:02;0.80;;;0.60;;
71965;SDS011;59836;52.132;5.442;2023-07-20T12:16:51;0.50;;;0.40;;
71965;SDS011;59836;52.132;5.442;2023-07-20T12:19:20;0.70;;;0.70;;
71965;SDS011;59836;52.132;5.442;2023-07-20T12:21:46;2.25;;;0.40;;
71965;SDS011;59836;52.132;5.442;2023-07-20T12:24:22;0.63;;;0.40;;
71965;SDS011;59836;52.132;5.442;2023-07-20T12:26:59;2.10;;;0.57;;
71965;SDS011;59836;52.132;5.442;2023-07-20T12:29:32;0.80;;;0.70;;
71965;SDS011;59836;52.132;5.442;2023-07-20T12:32:02;0.80;;;0.60;;
71965;SDS011;59836;52.132;5.442;2023-07-20T12:34:29;1.05;;;0.60;;
71965;SDS011;59836;52.132;5.442;2023-07-20T12:36:55;0.80;;;0.60;;
71965;SDS011;59836;52.132;5.442;2023-07-20T12:39:23;1.33;;;0.73;;
71965;SDS011;59836;52.132;5.442;2023-07-20T12:42:04;0.80;;;0.60;;
71965;SDS011;59836;52.132;5.442;2023-07-20T12:44:33;1.30;;;0.75;;
71965;SDS011;59836;52.132;5.442;2023-07-20T12:47:00;0.70;;;0.60;;
71965;SDS011;59836;52.132;5.442;2023-07-20T12:49:30;0.80;;;0.70;;
71965;SDS011;59836;52.132;5.442;2023-07-20T12:51:59;1.95;;;0.60;;
71965;SDS011;59836;52.132;5.442;2023-07-20T12:54:28;1.95;;;0.80;;
71965;SDS011;59836;52.132;5.442;2023-07-20T12:56:57;1.00;;;0.65;;
71965;SDS011;59836;52.132;5.442;2023-07-20T12:59:27;0.90;;;0.80;;
71965;SDS011;59836;52.132;5.442;2023-07-20T13:01:53;1.00;;;0.87;;
71965;SDS011;59836;52.132;5.442;2023-07-20T13:04:32;0.80;;;0.75;;
71965;SDS011;59836;52.132;5.442;2023-07-20T13:06:59;2.92;;;0.60;;
71965;SDS011;59836;52.132;5.442;2023-07-20T13:09:26;1.85;;;0.68;;
71965;SDS011;59836;52.132;5.442;2023-07-20T13:15:24;1.27;;;0.97;;
71965;SDS011;59836;52.132;5.442;2023-07-20T13:17:59;1.10;;;0.90;;
71965;SDS011;59836;52.132;5.442;2023-07-20T13:20:30;1.13;;;0.80;;
71965;SDS011;59836;52.132;5.442;2023-07-20T13:22:57;0.75;;;0.75;;
71965;SDS011;59836;52.132;5.442;2023-07-20T13:25:24;1.48;;;1.10;;
71965;SDS011;59836;52.132;5.442;2023-07-20T13:27:51;1.30;;;0.80;;
71965;SDS011;59836;52.132;5.442;2023-07-20T13:30:17;0.93;;;0.70;;
71965;SDS011;59836;52.132;5.442;2023-07-20T13:32:49;6.45;;;1.20;;
71965;SDS011;59836;52.132;5.442;2023-07-20T13:38:19;2.30;;;1.20;;
71965;SDS011;59836;52.132;5.442;2023-07-20T13:43:59;1.35;;;0.90;;
71965;SDS011;59836;52.132;5.442;2023-07-20T13:46:25;1.35;;;0.98;;
71965;SDS011;59836;52.132;5.442;2023-07-20T13:51:25;1.33;;;0.63;;
71965;SDS011;59836;52.132;5.442;2023-07-20T13:53:53;2.37;;;0.90;;
71965;SDS011;59836;52.132;5.442;2023-07-20T13:56:20;1.38;;;0.82;;
71965;SDS011;59836;52.132;5.442;2023-07-20T13:58:46;0.77;;;0.60;;
71965;SDS011;59836;52.132;5.442;2023-07-20T14:03:53;1.42;;;0.80;;
71965;SDS011;59836;52.132;5.442;2023-07-20T14:06:22;1.33;;;0.80;;
71965;SDS011;59836;52.132;5.442;2023-07-20T14:08:52;0.90;;;0.70;;
71965;SDS011;59836;52.132;5.442;2023-07-20T14:11:23;1.52;;;0.65;;
71965;SDS011;59836;52.132;5.442;2023-07-20T14:14:01;1.27;;;0.60;;
71965;SDS011;59836;52.132;5.442;2023-07-20T14:16:45;2.05;;;0.80;;
71965;SDS011;59836;52.132;5.442;2023-07-20T14:19:13;1.60;;;0.70;;
71965;SDS011;59836;52.132;5.442;2023-07-20T14:21:39;0.90;;;0.57;;
71965;SDS011;59836;52.132;5.442;2023-07-20T14:24:07;0.90;;;0.70;;
71965;SDS011;59836;52.132;5.442;2023-07-20T14:26:35;1.10;;;0.80;;
71965;SDS011;59836;52.132;5.442;2023-07-20T14:29:03;1.17;;;0.80;;
71965;SDS011;59836;52.132;5.442;2023-07-20T14:31:29;0.90;;;0.67;;
71965;SDS011;59836;52.132;5.442;2023-07-20T14:33:58;1.77;;;0.80;;
71965;SDS011;59836;52.132;5.442;2023-07-20T14:36:33;1.35;;;0.77;;
71965;SDS011;59836;52.132;5.442;2023-07-20T14:39:08;1.52;;;0.77;;
71965;SDS011;59836;52.132;5.442;2023-07-20T14:44:13;1.13;;;0.70;;
71965;SDS011;59836;52.132;5.442;2023-07-20T14:46:46;2.30;;;1.00;;
71965;SDS011;59836;52.132;5.442;2023-07-20T14:49:27;1.75;;;0.90;;
71965;SDS011;59836;52.132;5.442;2023-07-20T14:54:39;1.88;;;0.50;;
71965;SDS011;59836;52.132;5.442;2023-07-20T14:57:05;0.70;;;0.70;;
71965;SDS011;59836;52.132;5.442;2023-07-20T14:59:41;1.73;;;0.80;;
71965;SDS011;59836;52.132;5.442;2023-07-20T15:02:11;0.90;;;0.60;;
71965;SDS011;59836;52.132;5.442;2023-07-20T15:04:39;1.40;;;1.02;;
71965;SDS011;59836;52.132;5.442;2023-07-20T15:09:59;1.60;;;0.80;;
71965;SDS011;59836;52.132;5.442;2023-07-20T15:12:25;1.00;;;0.90;;
71965;SDS011;59836;52.132;5.442;2023-07-20T15:15:02;1.05;;;0.60;;
71965;SDS011;59836;52.132;5.442;2023-07-20T15:17:37;1.20;;;0.60;;
71965;SDS011;59836;52.132;5.442;2023-07-20T15:20:05;1.88;;;0.75;;
71965;SDS011;59836;52.132;5.442;2023-07-20T15:22:33;1.67;;;0.97;;
71965;SDS011;59836;52.132;5.442;2023-07-20T15:25:04;0.90;;;0.50;;
71965;SDS011;59836;52.132;5.442;2023-07-20T15:27:31;1.83;;;0.93;;
71965;SDS011;59836;52.132;5.442;2023-07-20T15:29:57;1.25;;;0.93;;
71965;SDS011;59836;52.132;5.442;2023-07-20T15:32:24;0.88;;;0.60;;
71965;SDS011;59836;52.132;5.442;2023-07-20T15:34:51;1.57;;;0.90;;
71965;SDS011;59836;52.132;5.442;2023-07-20T15:37:17;1.45;;;0.50;;
71965;SDS011;59836;52.132;5.442;2023-07-20T15:39:47;1.10;;;1.00;;
71965;SDS011;59836;52.132;5.442;2023-07-20T15:42:15;1.55;;;0.65;;
71965;SDS011;59836;52.132;5.442;2023-07-20T15:44:41;1.85;;;1.10;;
71965;SDS011;59836;52.132;5.442;2023-07-20T15:49:45;1.42;;;1.10;;
71965;SDS011;59836;52.132;5.442;2023-07-20T15:52:12;1.80;;;1.20;;
71965;SDS011;59836;52.132;5.442;2023-07-20T15:54:43;5.07;;;1.80;;
71965;SDS011;59836;52.132;5.442;2023-07-20T15:57:09;2.72;;;1.15;;
71965;SDS011;59836;52.132;5.442;2023-07-20T15:59:37;2.30;;;1.10;;
71965;SDS011;59836;52.132;5.442;2023-07-20T16:02:04;1.13;;;0.88;;
71965;SDS011;59836;52.132;5.442;2023-07-20T16:04:32;1.90;;;1.13;;
71965;SDS011;59836;52.132;5.442;2023-07-20T16:06:58;1.50;;;1.15;;
71965;SDS011;59836;52.132;5.442;2023-07-20T16:09:25;2.30;;;1.20;;
71965;SDS011;59836;52.132;5.442;2023-07-20T16:11:54;1.83;;;0.87;;
71965;SDS011;59836;52.132;5.442;2023-07-20T16:14:22;2.05;;;1.38;;
71965;SDS011;59836;52.132;5.442;2023-07-20T18:37:57;1.63;;;1.30;;
71965;SDS011;59836;52.132;5.442;2023-07-20T18:40:24;2.28;;;1.50;;
71965;SDS011;59836;52.132;5.442;2023-07-20T18:42:55;3.17;;;1.60;;
71965;SDS011;59836;52.132;5.442;2023-07-20T18:45:21;3.15;;;2.08;;
71965;SDS011;59836;52.132;5.442;2023-07-20T18:48:03;4.40;;;1.85;;
71965;SDS011;59836;52.132;5.442;2023-07-20T18:50:30;3.00;;;1.67;;
71965;SDS011;59836;52.132;5.442;2023-07-20T18:53:05;2.20;;;1.75;;
71965;SDS011;59836;52.132;5.442;2023-07-20T18:55:31;2.53;;;1.57;;
71965;SDS011;59836;52.132;5.442;2023-07-20T18:58:00;1.60;;;1.13;;
71965;SDS011;59836;52.132;5.442;2023-07-20T19:00:26;3.25;;;1.55;;
71965;SDS011;59836;52.132;5.442;2023-07-20T19:02:53;1.80;;;1.60;;
71965;SDS011;59836;52.132;5.442;2023-07-20T19:05:19;1.95;;;1.52;;
71965;SDS011;59836;52.132;5.442;2023-07-20T19:07:46;3.57;;;1.20;;
71965;SDS011;59836;52.132;5.442;2023-07-20T19:10:13;2.65;;;1.13;;
71965;SDS011;59836;52.132;5.442;2023-07-20T19:12:40;2.00;;;1.80;;
71965;SDS011;59836;52.132;5.442;2023-07-20T19:15:22;1.90;;;1.40;;
71965;SDS011;59836;52.132;5.442;2023-07-20T19:17:49;2.53;;;1.48;;
71965;SDS011;59836;52.132;5.442;2023-07-20T19:20:16;2.80;;;1.50;;
71965;SDS011;59836;52.132;5.442;2023-07-20T19:22:43;1.55;;;1.30;;
71965;SDS011;59836;52.132;5.442;2023-07-20T19:25:10;1.50;;;1.40;;
71965;SDS011;59836;52.132;5.442;2023-07-20T19:27:43;2.10;;;1.50;;
71965;SDS011;59836;52.132;5.442;2023-07-20T19:30:10;1.77;;;1.10;;
71965;SDS011;59836;52.132;5.442;2023-07-20T19:32:37;3.07;;;1.40;;
71965;SDS011;59836;52.132;5.442;2023-07-20T19:35:03;3.20;;;1.40;;
71965;SDS011;59836;52.132;5.442;2023-07-20T19:37:31;1.95;;;1.73;;
71965;SDS011;59836;52.132;5.442;2023-07-20T19:39:58;3.28;;;1.75;;
71965;SDS011;59836;52.132;5.442;2023-07-20T19:42:24;2.55;;;1.58;;
71965;SDS011;59836;52.132;5.442;2023-07-20T19:44:51;1.87;;;1.23;;
71965;SDS011;59836;52.132;5.442;2023-07-20T19:47:17;2.75;;;1.50;;
71965;SDS011;59836;52.132;5.442;2023-07-20T19:49:44;3.45;;;2.00;;
71965;SDS011;59836;52.132;5.442;2023-07-20T19:52:12;2.33;;;1.30;;
71965;SDS011;59836;52.132;5.442;2023-07-20T19:54:40;4.82;;;1.67;;
71965;SDS011;59836;52.132;5.442;2023-07-20T19:57:21;1.73;;;1.10;;
71965;SDS011;59836;52.132;5.442;2023-07-20T19:59:52;2.10;;;1.10;;
71965;SDS011;59836;52.132;5.442;2023-07-20T20:02:20;2.03;;;1.30;;
71965;SDS011;59836;52.132;5.442;2023-07-20T20:04:48;2.08;;;1.70;;
71965;SDS011;59836;52.132;5.442;2023-07-20T20:07:18;1.90;;;1.63;;
71965;SDS011;59836;52.132;5.442;2023-07-20T20:12:33;2.53;;;1.00;;
71965;SDS011;59836;52.132;5.442;2023-07-20T20:15:00;1.60;;;1.30;;
71965;SDS011;59836;52.132;5.442;2023-07-20T20:17:30;1.95;;;1.50;;
71965;SDS011;59836;52.132;5.442;2023-07-20T20:19:56;3.20;;;1.40;;
71965;SDS011;59836;52.132;5.442;2023-07-20T20:22:23;2.00;;;1.23;;
71965;SDS011;59836;52.132;5.442;2023-07-20T20:30:08;2.45;;;1.40;;
71965;SDS011;59836;52.132;5.442;2023-07-20T20:32:41;1.40;;;1.10;;
71965;SDS011;59836;52.132;5.442;2023-07-20T20:35:18;1.30;;;1.10;;
71965;SDS011;59836;52.132;5.442;2023-07-20T20:37:46;1.40;;;1.20;;
71965;SDS011;59836;52.132;5.442;2023-07-20T20:43:18;2.45;;;1.40;;
71965;SDS011;59836;52.132;5.442;2023-07-20T20:45:47;1.95;;;1.50;;
71965;SDS011;59836;52.132;5.442;2023-07-20T20:48:21;2.47;;;1.30;;
71965;SDS011;59836;52.132;5.442;2023-07-20T20:50:50;2.75;;;1.40;;
71965;SDS011;59836;52.132;5.442;2023-07-20T20:53:19;2.40;;;1.73;;
71965;SDS011;59836;52.132;5.442;2023-07-20T20:58:17;3.13;;;1.70;;
71965;SDS011;59836;52.132;5.442;2023-07-20T21:03:13;4.68;;;2.45;;
71965;SDS011;59836;52.132;5.442;2023-07-20T21:05:40;2.63;;;2.05;;
71965;SDS011;59836;52.132;5.442;2023-07-20T21:08:06;3.30;;;2.47;;
71965;SDS011;59836;52.132;5.442;2023-07-20T21:10:33;4.70;;;2.30;;
71965;SDS011;59836;52.132;5.442;2023-07-20T21:13:00;2.77;;;1.70;;
71965;SDS011;59836;52.132;5.442;2023-07-20T21:17:59;3.35;;;2.10;;
71965;SDS011;59836;52.132;5.442;2023-07-20T21:22:59;2.75;;;1.80;;
71965;SDS011;59836;52.132;5.442;2023-07-20T21:25:26;2.67;;;1.60;;
71965;SDS011;59836;52.132;5.442;2023-07-20T21:27:57;2.30;;;1.52;;
71965;SDS011;59836;52.132;5.442;2023-07-20T21:30:28;2.33;;;1.55;;
71965;SDS011;59836;52.132;5.442;2023-07-20T21:33:00;2.53;;;1.40;;
71965;SDS011;59836;52.132;5.442;2023-07-20T21:35:27;1.98;;;1.55;;
71965;SDS011;59836;52.132;5.442;2023-07-20T21:38:01;4.30;;;2.03;;
71965;SDS011;59836;52.132;5.442;2023-07-20T21:40:29;2.45;;;1.85;;
71965;SDS011;59836;52.132;5.442;2023-07-20T21:43:13;2.63;;;1.75;;
71965;SDS011;59836;52.132;5.442;2023-07-20T21:45:43;2.95;;;1.50;;